OCS2110 SBRF-SCEL
Flight info
| Callsign | OCS2110 |
|---|---|
| Flight time | 5h 56m |
| Altitude | 38000 |
| Route | GAVAK UZ30 ARNOX UZ17 DALMU DCT OPKIL DCT KOVAX DCT PANAB DCT SOSMO UM403 VAS UM529 ARPAS UZ124 FSA DCT GUKAS DCT SUKPA DCT UMKAL UMKAL7C |
| Aircraft | B77L/H-SDE1E2E3FGHIJ2J3J4J5M1RWXY/LB1D1 |
Departure
| Time | 2026-05-07 13:08 |
|---|---|
| Airport | Recife/Guararapes - Gilberto Freyre International Airport (SBRF) |
Arrival
| Time | 2026-05-07 19:05 |
|---|---|
| Airport | Comodoro Arturo Merino Benítez International Airport (SCEL) |
| Time | Latitude | Longitude | Altitude | Speed | Heading |
|---|---|---|---|---|---|
| 2026-05-07 12:55 | -8.13229 | -34.91898 | 44 ft | 0 kts | 72° |
| 2026-05-07 12:59 | -8.13230 | -34.91901 | 44 ft | 3 kts | 72° |
| 2026-05-07 12:59 | -8.13236 | -34.91920 | 45 ft | 3 kts | 72° |
| 2026-05-07 12:59 | -8.13243 | -34.91940 | 45 ft | 3 kts | 49° |
| 2026-05-07 13:00 | -8.13257 | -34.91951 | 42 ft | 3 kts | 13° |
| 2026-05-07 13:00 | -8.13273 | -34.91952 | 42 ft | 2 kts | 339° |
| 2026-05-07 13:00 | -8.13274 | -34.91951 | 42 ft | 0 kts | 338° |
| 2026-05-07 13:03 | -8.13260 | -34.91958 | 42 ft | 13 kts | 335° |
| 2026-05-07 13:03 | -8.13117 | -34.92014 | 45 ft | 24 kts | 335° |
| 2026-05-07 13:03 | -8.12962 | -34.92067 | 46 ft | 24 kts | 343° |
| 2026-05-07 13:04 | -8.12805 | -34.92118 | 46 ft | 24 kts | 342° |
| 2026-05-07 13:04 | -8.12649 | -34.92168 | 46 ft | 24 kts | 342° |
| 2026-05-07 13:04 | -8.12493 | -34.92219 | 46 ft | 24 kts | 342° |
| 2026-05-07 13:04 | -8.12337 | -34.92271 | 46 ft | 24 kts | 342° |
| 2026-05-07 13:05 | -8.12181 | -34.92322 | 45 ft | 24 kts | 342° |
| 2026-05-07 13:05 | -8.12025 | -34.92373 | 45 ft | 24 kts | 342° |
| 2026-05-07 13:05 | -8.11869 | -34.92424 | 45 ft | 24 kts | 342° |
| 2026-05-07 13:05 | -8.11721 | -34.92472 | 45 ft | 10 kts | 342° |
| 2026-05-07 13:06 | -8.11683 | -34.92485 | 45 ft | 6 kts | 342° |
| 2026-05-07 13:06 | -8.11580 | -34.92537 | 45 ft | 23 kts | 323° |
| 2026-05-07 13:06 | -8.11498 | -34.92603 | 45 ft | 23 kts | 318° |
| 2026-05-07 13:06 | -8.11446 | -34.92686 | 45 ft | 8 kts | 248° |
| 2026-05-07 13:07 | -8.11475 | -34.92702 | 45 ft | 8 kts | 182° |
| 2026-05-07 13:07 | -8.11501 | -34.92693 | 45 ft | 1 kts | 159° |
| 2026-05-07 13:07 | -8.11509 | -34.92690 | 45 ft | 3 kts | 159° |
| 2026-05-07 13:07 | -8.11746 | -34.92610 | 44 ft | 77 kts | 162° |
| 2026-05-07 13:08 | -8.12491 | -34.92363 | 45 ft | 146 kts | 162° |
| 2026-05-07 13:08 | -8.13606 | -34.91988 | 218 ft | 181 kts | 161° |
| 2026-05-07 13:08 | -8.14410 | -34.91714 | 736 ft | 181 kts | 163° |
| 2026-05-07 13:08 | -8.15672 | -34.91282 | 1204 ft | 202 kts | 162° |
| 2026-05-07 13:09 | -8.16990 | -34.90840 | 2022 ft | 200 kts | 167° |
| 2026-05-07 13:09 | -8.18428 | -34.91029 | 2323 ft | 234 kts | 206° |
| 2026-05-07 13:09 | -8.19538 | -34.92279 | 3012 ft | 252 kts | 240° |
| 2026-05-07 13:09 | -8.20160 | -34.94009 | 3607 ft | 268 kts | 250° |
| 2026-05-07 13:10 | -8.20706 | -34.95824 | 4454 ft | 275 kts | 250° |
| 2026-05-07 13:10 | -8.21260 | -34.97693 | 5329 ft | 278 kts | 250° |
| 2026-05-07 13:10 | -8.21815 | -34.99571 | 5920 ft | 281 kts | 250° |
| 2026-05-07 13:10 | -8.22388 | -35.01487 | 5997 ft | 289 kts | 250° |
| 2026-05-07 13:11 | -8.22971 | -35.03427 | 6503 ft | 290 kts | 250° |
| 2026-05-07 13:11 | -8.23561 | -35.05376 | 7413 ft | 290 kts | 250° |
| 2026-05-07 13:11 | -8.24153 | -35.07326 | 8348 ft | 292 kts | 250° |
| 2026-05-07 13:11 | -8.24760 | -35.09308 | 9191 ft | 299 kts | 251° |
| 2026-05-07 13:12 | -8.25378 | -35.11334 | 9994 ft | 304 kts | 251° |
| 2026-05-07 13:12 | -8.26009 | -35.13402 | 10630 ft | 317 kts | 251° |
| 2026-05-07 13:12 | -8.26709 | -35.15611 | 10857 ft | 340 kts | 247° |
| 2026-05-07 13:12 | -8.27924 | -35.17708 | 11028 ft | 358 kts | 230° |
| 2026-05-07 13:13 | -8.29559 | -35.19730 | 11288 ft | 382 kts | 229° |
| 2026-05-07 13:13 | -8.31287 | -35.21810 | 12073 ft | 392 kts | 229° |
| 2026-05-07 13:13 | -8.33060 | -35.23947 | 13002 ft | 399 kts | 229° |
| 2026-05-07 13:13 | -8.34838 | -35.26110 | 13991 ft | 403 kts | 230° |
| 2026-05-07 13:14 | -8.36319 | -35.27930 | 14691 ft | 406 kts | 231° |
| 2026-05-07 13:14 | -8.37507 | -35.29396 | 15267 ft | 407 kts | 231° |
| 2026-05-07 13:14 | -8.39303 | -35.31625 | 16078 ft | 412 kts | 231° |
| 2026-05-07 13:14 | -8.41096 | -35.33857 | 16852 ft | 416 kts | 231° |
| 2026-05-07 13:15 | -8.42925 | -35.36139 | 17636 ft | 420 kts | 232° |
| 2026-05-07 13:15 | -8.44770 | -35.38443 | 18376 ft | 424 kts | 232° |
| 2026-05-07 13:15 | -8.46633 | -35.40770 | 19005 ft | 428 kts | 233° |
| 2026-05-07 13:15 | -8.48520 | -35.43128 | 19591 ft | 434 kts | 233° |
| 2026-05-07 13:16 | -8.50426 | -35.45510 | 20183 ft | 438 kts | 233° |
| 2026-05-07 13:16 | -8.52351 | -35.47916 | 20821 ft | 442 kts | 233° |
| 2026-05-07 13:16 | -8.54292 | -35.50342 | 21442 ft | 446 kts | 233° |
| 2026-05-07 13:16 | -8.56249 | -35.52788 | 22042 ft | 450 kts | 234° |
| 2026-05-07 13:17 | -8.58224 | -35.55257 | 22647 ft | 454 kts | 234° |
| 2026-05-07 13:17 | -8.60215 | -35.57746 | 23231 ft | 458 kts | 234° |
| 2026-05-07 13:17 | -8.62226 | -35.60261 | 23780 ft | 462 kts | 234° |
| 2026-05-07 13:17 | -8.64253 | -35.62796 | 24330 ft | 463 kts | 234° |
| 2026-05-07 13:18 | -8.66280 | -35.65329 | 24908 ft | 464 kts | 234° |
| 2026-05-07 13:18 | -8.68307 | -35.67864 | 25458 ft | 465 kts | 234° |
| 2026-05-07 13:18 | -8.70343 | -35.70412 | 25959 ft | 467 kts | 234° |
| 2026-05-07 13:18 | -8.72385 | -35.72969 | 26464 ft | 468 kts | 234° |
| 2026-05-07 13:19 | -8.74433 | -35.75533 | 26942 ft | 470 kts | 234° |
| 2026-05-07 13:19 | -8.76492 | -35.78110 | 27406 ft | 472 kts | 234° |
| 2026-05-07 13:19 | -8.78555 | -35.80692 | 27878 ft | 473 kts | 234° |
| 2026-05-07 13:19 | -8.80624 | -35.83284 | 28334 ft | 475 kts | 234° |
| 2026-05-07 13:20 | -8.82702 | -35.85887 | 28760 ft | 476 kts | 234° |
| 2026-05-07 13:20 | -8.84787 | -35.88500 | 29168 ft | 478 kts | 235° |
| 2026-05-07 13:20 | -8.86875 | -35.91117 | 29521 ft | 480 kts | 235° |
| 2026-05-07 13:20 | -8.88978 | -35.93754 | 29840 ft | 482 kts | 235° |
| 2026-05-07 13:21 | -8.91054 | -35.96358 | 30201 ft | 483 kts | 235° |
| 2026-05-07 13:21 | -8.93159 | -35.98996 | 30607 ft | 481 kts | 235° |
| 2026-05-07 13:21 | -8.95258 | -36.01628 | 31018 ft | 479 kts | 235° |
| 2026-05-07 13:21 | -8.97348 | -36.04250 | 31425 ft | 478 kts | 235° |
| 2026-05-07 13:22 | -8.99432 | -36.06865 | 31865 ft | 477 kts | 235° |
| 2026-05-07 13:22 | -9.01512 | -36.09475 | 32319 ft | 476 kts | 235° |
| 2026-05-07 13:22 | -9.03586 | -36.12080 | 32746 ft | 475 kts | 235° |
| 2026-05-07 13:22 | -9.05664 | -36.14668 | 33189 ft | 474 kts | 234° |
| 2026-05-07 13:23 | -9.07774 | -36.17222 | 33725 ft | 471 kts | 234° |
| 2026-05-07 13:23 | -9.09888 | -36.19746 | 34195 ft | 470 kts | 234° |
| 2026-05-07 13:23 | -9.12003 | -36.22262 | 34605 ft | 468 kts | 234° |
| 2026-05-07 13:23 | -9.14108 | -36.24769 | 35047 ft | 466 kts | 234° |
| 2026-05-07 13:24 | -9.16197 | -36.27263 | 35473 ft | 464 kts | 234° |
| 2026-05-07 13:24 | -9.18278 | -36.29755 | 35872 ft | 462 kts | 234° |
| 2026-05-07 13:24 | -9.20347 | -36.32237 | 36273 ft | 460 kts | 234° |
| 2026-05-07 13:24 | -9.22403 | -36.34709 | 36650 ft | 459 kts | 234° |
| 2026-05-07 13:25 | -9.24455 | -36.37174 | 36999 ft | 457 kts | 234° |
| 2026-05-07 13:25 | -9.26503 | -36.39637 | 37316 ft | 457 kts | 234° |
| 2026-05-07 13:25 | -9.28547 | -36.42097 | 37680 ft | 456 kts | 234° |
| 2026-05-07 13:25 | -9.30581 | -36.44545 | 38061 ft | 454 kts | 234° |
| 2026-05-07 13:26 | -9.34668 | -36.49464 | 38054 ft | 456 kts | 234° |
| 2026-05-07 13:26 | -9.38730 | -36.54351 | 38049 ft | 452 kts | 234° |
| 2026-05-07 13:27 | -9.42761 | -36.59204 | 38050 ft | 449 kts | 234° |
| 2026-05-07 13:27 | -9.46777 | -36.64042 | 38048 ft | 448 kts | 234° |
| 2026-05-07 13:28 | -9.50785 | -36.68871 | 38041 ft | 447 kts | 234° |
| 2026-05-07 13:28 | -9.54788 | -36.73698 | 38038 ft | 448 kts | 234° |
| 2026-05-07 13:29 | -9.58795 | -36.78530 | 38045 ft | 448 kts | 234° |
| 2026-05-07 13:29 | -9.62806 | -36.83371 | 38038 ft | 449 kts | 234° |
| 2026-05-07 13:30 | -9.66821 | -36.88216 | 38044 ft | 449 kts | 234° |
| 2026-05-07 13:30 | -9.70813 | -36.93037 | 38038 ft | 450 kts | 234° |
| 2026-05-07 13:31 | -9.74838 | -36.97899 | 38041 ft | 450 kts | 234° |
| 2026-05-07 13:31 | -9.78866 | -37.02766 | 38039 ft | 451 kts | 234° |
| 2026-05-07 13:32 | -9.82893 | -37.07636 | 38037 ft | 450 kts | 234° |
| 2026-05-07 13:32 | -9.86916 | -37.12502 | 38035 ft | 450 kts | 234° |
| 2026-05-07 13:33 | -9.91464 | -37.16907 | 38048 ft | 457 kts | 222° |
| 2026-05-07 13:33 | -9.96650 | -37.20668 | 38037 ft | 459 kts | 220° |
| 2026-05-07 13:34 | -10.04423 | -37.26313 | 38041 ft | 458 kts | 221° |
| 2026-05-07 13:35 | -10.09548 | -37.30143 | 38041 ft | 457 kts | 221° |
| 2026-05-07 13:35 | -10.14659 | -37.33987 | 38045 ft | 457 kts | 222° |
| 2026-05-07 13:36 | -10.19771 | -37.37831 | 38041 ft | 457 kts | 222° |
| 2026-05-07 13:36 | -10.24846 | -37.41645 | 38051 ft | 457 kts | 221° |
| 2026-05-07 13:37 | -10.29953 | -37.45484 | 38050 ft | 457 kts | 221° |
| 2026-05-07 13:37 | -10.35055 | -37.49321 | 38051 ft | 456 kts | 221° |
| 2026-05-07 13:38 | -10.40156 | -37.53159 | 38048 ft | 456 kts | 221° |
| 2026-05-07 13:38 | -10.45252 | -37.56995 | 38051 ft | 456 kts | 221° |
| 2026-05-07 13:39 | -10.50347 | -37.60831 | 38057 ft | 456 kts | 221° |
| 2026-05-07 13:39 | -10.55432 | -37.64668 | 38048 ft | 456 kts | 221° |
| 2026-05-07 13:40 | -10.60514 | -37.68511 | 38060 ft | 455 kts | 221° |
| 2026-05-07 13:40 | -10.65598 | -37.72359 | 38056 ft | 455 kts | 221° |
| 2026-05-07 13:41 | -10.70680 | -37.76205 | 38052 ft | 455 kts | 221° |
| 2026-05-07 13:41 | -10.75756 | -37.80048 | 38058 ft | 455 kts | 221° |
| 2026-05-07 13:42 | -10.80833 | -37.83895 | 38057 ft | 455 kts | 221° |
| 2026-05-07 13:42 | -10.85910 | -37.87742 | 38063 ft | 455 kts | 221° |
| 2026-05-07 13:43 | -10.90987 | -37.91591 | 38061 ft | 455 kts | 221° |
| 2026-05-07 13:43 | -10.96064 | -37.95442 | 38061 ft | 455 kts | 221° |
| 2026-05-07 13:44 | -11.01145 | -37.99298 | 38060 ft | 456 kts | 221° |
| 2026-05-07 13:44 | -11.06230 | -38.03158 | 38056 ft | 456 kts | 221° |
| 2026-05-07 13:45 | -11.11314 | -38.07020 | 38056 ft | 456 kts | 221° |
| 2026-05-07 13:45 | -11.16365 | -38.10857 | 38055 ft | 456 kts | 221° |
| 2026-05-07 13:46 | -11.21449 | -38.14722 | 38060 ft | 456 kts | 221° |
| 2026-05-07 13:46 | -11.26534 | -38.18589 | 38048 ft | 456 kts | 221° |
| 2026-05-07 13:47 | -11.31623 | -38.22462 | 38049 ft | 457 kts | 221° |
| 2026-05-07 13:47 | -11.36715 | -38.26338 | 38056 ft | 457 kts | 220° |
| 2026-05-07 13:48 | -11.41691 | -38.30128 | 38079 ft | 457 kts | 220° |
| 2026-05-07 13:48 | -11.46781 | -38.34007 | 38059 ft | 457 kts | 220° |
| 2026-05-07 13:49 | -11.51863 | -38.37889 | 38058 ft | 456 kts | 220° |
| 2026-05-07 13:49 | -11.56923 | -38.41783 | 38062 ft | 456 kts | 220° |
| 2026-05-07 13:50 | -11.61981 | -38.45678 | 38060 ft | 455 kts | 220° |
| 2026-05-07 13:50 | -11.67003 | -38.49545 | 38068 ft | 455 kts | 220° |
| 2026-05-07 13:51 | -11.72051 | -38.53424 | 38067 ft | 455 kts | 220° |
| 2026-05-07 13:51 | -11.77118 | -38.57283 | 38065 ft | 454 kts | 219° |
| 2026-05-07 13:52 | -11.82188 | -38.61142 | 38075 ft | 454 kts | 219° |
| 2026-05-07 13:52 | -11.87241 | -38.64995 | 38071 ft | 454 kts | 219° |
| 2026-05-07 13:53 | -11.92298 | -38.68856 | 38072 ft | 453 kts | 219° |
| 2026-05-07 13:53 | -11.97349 | -38.72715 | 38070 ft | 453 kts | 219° |
| 2026-05-07 13:54 | -12.02364 | -38.76547 | 38076 ft | 452 kts | 219° |
| 2026-05-07 13:54 | -12.07403 | -38.80400 | 38070 ft | 452 kts | 219° |
| 2026-05-07 13:55 | -12.12434 | -38.84248 | 38077 ft | 452 kts | 219° |
| 2026-05-07 13:55 | -12.17463 | -38.88097 | 38076 ft | 451 kts | 219° |
| 2026-05-07 13:56 | -12.22490 | -38.91946 | 38070 ft | 451 kts | 218° |
| 2026-05-07 13:56 | -12.26667 | -38.95146 | 38091 ft | 452 kts | 218° |
| 2026-05-07 13:57 | -12.31698 | -38.99002 | 38069 ft | 452 kts | 218° |
| 2026-05-07 13:57 | -12.36729 | -39.02860 | 38072 ft | 452 kts | 218° |
| 2026-05-07 13:58 | -12.41751 | -39.06713 | 38075 ft | 451 kts | 218° |
| 2026-05-07 13:58 | -12.46764 | -39.10560 | 38076 ft | 450 kts | 218° |
| 2026-05-07 13:59 | -12.51771 | -39.14405 | 38075 ft | 450 kts | 218° |
| 2026-05-07 13:59 | -12.56778 | -39.18253 | 38075 ft | 450 kts | 218° |
| 2026-05-07 14:00 | -12.61786 | -39.22103 | 38068 ft | 450 kts | 218° |
| 2026-05-07 14:00 | -12.66780 | -39.25958 | 38075 ft | 450 kts | 218° |
| 2026-05-07 14:01 | -12.71730 | -39.29874 | 38075 ft | 449 kts | 219° |
| 2026-05-07 14:01 | -12.76669 | -39.33803 | 38079 ft | 449 kts | 218° |
| 2026-05-07 14:02 | -12.81612 | -39.37726 | 38079 ft | 449 kts | 218° |
| 2026-05-07 14:02 | -12.86558 | -39.41648 | 38076 ft | 450 kts | 218° |
| 2026-05-07 14:03 | -12.91505 | -39.45571 | 38081 ft | 450 kts | 218° |
| 2026-05-07 14:03 | -12.96453 | -39.49497 | 38083 ft | 450 kts | 218° |
| 2026-05-07 14:04 | -13.01396 | -39.53421 | 38085 ft | 449 kts | 218° |
| 2026-05-07 14:04 | -13.06339 | -39.57348 | 38090 ft | 449 kts | 218° |
| 2026-05-07 14:05 | -13.11279 | -39.61274 | 38099 ft | 449 kts | 218° |
| 2026-05-07 14:05 | -13.16217 | -39.65201 | 38098 ft | 450 kts | 218° |
| 2026-05-07 14:06 | -13.21163 | -39.69137 | 38101 ft | 450 kts | 218° |
| 2026-05-07 14:06 | -13.25977 | -39.73231 | 38093 ft | 450 kts | 226° |
| 2026-05-07 14:07 | -13.29771 | -39.78276 | 38103 ft | 450 kts | 236° |
| 2026-05-07 14:07 | -13.32534 | -39.84055 | 38100 ft | 452 kts | 244° |
| 2026-05-07 14:08 | -13.35046 | -39.89963 | 38101 ft | 451 kts | 243° |
| 2026-05-07 14:08 | -13.37627 | -39.95836 | 38102 ft | 451 kts | 243° |
| 2026-05-07 14:09 | -13.40193 | -40.01715 | 38110 ft | 451 kts | 243° |
| 2026-05-07 14:09 | -13.42743 | -40.07591 | 38097 ft | 451 kts | 243° |
| 2026-05-07 14:10 | -13.45299 | -40.13483 | 38103 ft | 451 kts | 243° |
| 2026-05-07 14:10 | -13.47853 | -40.19371 | 38097 ft | 451 kts | 243° |
| 2026-05-07 14:11 | -13.50406 | -40.25257 | 38105 ft | 451 kts | 243° |
| 2026-05-07 14:11 | -13.52919 | -40.31057 | 38098 ft | 451 kts | 243° |
| 2026-05-07 14:12 | -13.55467 | -40.36941 | 38100 ft | 451 kts | 243° |
| 2026-05-07 14:12 | -13.58014 | -40.42830 | 38098 ft | 450 kts | 243° |
| 2026-05-07 14:13 | -13.60529 | -40.48647 | 38098 ft | 450 kts | 242° |
| 2026-05-07 14:13 | -13.63071 | -40.54532 | 38095 ft | 450 kts | 242° |
| 2026-05-07 14:14 | -13.65611 | -40.60416 | 38095 ft | 450 kts | 242° |
| 2026-05-07 14:14 | -13.68147 | -40.66296 | 38085 ft | 450 kts | 242° |
| 2026-05-07 14:15 | -13.70678 | -40.72169 | 38088 ft | 449 kts | 242° |
| 2026-05-07 14:15 | -13.73208 | -40.78045 | 38083 ft | 449 kts | 242° |
| 2026-05-07 14:16 | -13.75730 | -40.83916 | 38088 ft | 448 kts | 242° |
| 2026-05-07 14:16 | -13.78229 | -40.89743 | 38080 ft | 448 kts | 242° |
| 2026-05-07 14:17 | -13.80741 | -40.95603 | 38086 ft | 447 kts | 242° |
| 2026-05-07 14:17 | -13.83249 | -41.01460 | 38081 ft | 447 kts | 242° |
| 2026-05-07 14:18 | -13.85754 | -41.07314 | 38090 ft | 447 kts | 242° |
| 2026-05-07 14:18 | -13.88257 | -41.13165 | 38093 ft | 447 kts | 242° |
| 2026-05-07 14:19 | -13.90745 | -41.18970 | 38089 ft | 447 kts | 242° |
| 2026-05-07 14:19 | -13.93253 | -41.24823 | 38090 ft | 447 kts | 242° |
| 2026-05-07 14:20 | -13.95762 | -41.30684 | 38087 ft | 448 kts | 242° |
| 2026-05-07 14:20 | -13.98270 | -41.36550 | 38092 ft | 448 kts | 242° |
| 2026-05-07 14:21 | -14.00779 | -41.42424 | 38084 ft | 448 kts | 242° |
| 2026-05-07 14:21 | -14.03284 | -41.48293 | 38093 ft | 448 kts | 242° |
| 2026-05-07 14:22 | -14.05791 | -41.54169 | 38089 ft | 448 kts | 242° |
| 2026-05-07 14:22 | -14.08296 | -41.60048 | 38090 ft | 448 kts | 242° |
| 2026-05-07 14:23 | -14.10782 | -41.65887 | 38093 ft | 448 kts | 242° |
| 2026-05-07 14:23 | -14.13283 | -41.71764 | 38086 ft | 448 kts | 243° |
| 2026-05-07 14:24 | -14.15781 | -41.77639 | 38091 ft | 448 kts | 242° |
| 2026-05-07 14:24 | -14.18276 | -41.83511 | 38088 ft | 448 kts | 242° |
| 2026-05-07 14:25 | -14.20773 | -41.89395 | 38092 ft | 448 kts | 242° |
| 2026-05-07 14:25 | -14.23270 | -41.95281 | 38094 ft | 448 kts | 242° |
| 2026-05-07 14:26 | -14.25766 | -42.01170 | 38093 ft | 448 kts | 243° |
| 2026-05-07 14:26 | -14.28260 | -42.07060 | 38095 ft | 448 kts | 243° |
| 2026-05-07 14:27 | -14.30753 | -42.12953 | 38101 ft | 448 kts | 243° |
| 2026-05-07 14:27 | -14.33229 | -42.18810 | 38092 ft | 449 kts | 243° |
| 2026-05-07 14:28 | -14.35721 | -42.24708 | 38103 ft | 448 kts | 243° |
| 2026-05-07 14:28 | -14.38203 | -42.30604 | 38095 ft | 449 kts | 243° |
| 2026-05-07 14:29 | -14.40683 | -42.36510 | 38095 ft | 449 kts | 243° |
| 2026-05-07 14:29 | -14.43163 | -42.42419 | 38096 ft | 449 kts | 243° |
| 2026-05-07 14:30 | -14.45644 | -42.48330 | 38092 ft | 449 kts | 243° |
| 2026-05-07 14:30 | -14.48129 | -42.54239 | 38090 ft | 449 kts | 243° |
| 2026-05-07 14:31 | -14.50613 | -42.60148 | 38091 ft | 449 kts | 243° |
| 2026-05-07 14:31 | -14.53093 | -42.66055 | 38087 ft | 449 kts | 243° |
| 2026-05-07 14:32 | -14.55554 | -42.71923 | 38078 ft | 448 kts | 243° |
| 2026-05-07 14:32 | -14.58029 | -42.77829 | 38080 ft | 448 kts | 243° |
| 2026-05-07 14:33 | -14.60498 | -42.83727 | 38080 ft | 448 kts | 243° |
| 2026-05-07 14:33 | -14.62972 | -42.89639 | 38073 ft | 448 kts | 243° |
| 2026-05-07 14:34 | -14.65437 | -42.95538 | 38088 ft | 448 kts | 243° |
| 2026-05-07 14:34 | -14.67903 | -43.01440 | 38082 ft | 447 kts | 243° |
| 2026-05-07 14:35 | -14.70365 | -43.07341 | 38080 ft | 447 kts | 243° |
| 2026-05-07 14:35 | -14.72824 | -43.13239 | 38075 ft | 447 kts | 243° |
| 2026-05-07 14:36 | -14.75282 | -43.19137 | 38074 ft | 447 kts | 243° |
| 2026-05-07 14:36 | -14.77737 | -43.25034 | 38073 ft | 447 kts | 243° |
| 2026-05-07 14:37 | -14.80190 | -43.30933 | 38074 ft | 447 kts | 243° |
| 2026-05-07 14:37 | -14.83868 | -43.39785 | 38070 ft | 447 kts | 243° |
| 2026-05-07 14:38 | -14.86318 | -43.45689 | 38072 ft | 447 kts | 243° |
| 2026-05-07 14:38 | -14.88753 | -43.51559 | 38073 ft | 447 kts | 243° |
| 2026-05-07 14:39 | -14.91199 | -43.57463 | 38067 ft | 447 kts | 243° |
| 2026-05-07 14:39 | -14.93646 | -43.63375 | 38068 ft | 447 kts | 243° |
| 2026-05-07 14:40 | -14.96092 | -43.69289 | 38071 ft | 447 kts | 243° |
| 2026-05-07 14:40 | -14.98217 | -43.74432 | 38074 ft | 447 kts | 243° |
| 2026-05-07 14:41 | -15.00645 | -43.80309 | 38074 ft | 447 kts | 243° |
| 2026-05-07 14:41 | -15.03085 | -43.86227 | 38079 ft | 447 kts | 243° |
| 2026-05-07 14:42 | -15.05523 | -43.92147 | 38077 ft | 447 kts | 243° |
| 2026-05-07 14:42 | -15.07942 | -43.98028 | 38081 ft | 447 kts | 243° |
| 2026-05-07 14:43 | -15.10376 | -44.03951 | 38080 ft | 447 kts | 243° |
| 2026-05-07 14:43 | -15.12807 | -44.09870 | 38086 ft | 447 kts | 243° |
| 2026-05-07 14:44 | -15.15239 | -44.15796 | 38084 ft | 447 kts | 243° |
| 2026-05-07 14:44 | -15.17668 | -44.21723 | 38087 ft | 447 kts | 244° |
| 2026-05-07 14:45 | -15.20079 | -44.27613 | 38087 ft | 447 kts | 244° |
| 2026-05-07 14:45 | -15.22506 | -44.33543 | 38083 ft | 447 kts | 244° |
| 2026-05-07 14:46 | -15.24935 | -44.39474 | 38081 ft | 447 kts | 244° |
| 2026-05-07 14:46 | -15.27363 | -44.45405 | 38088 ft | 447 kts | 244° |
| 2026-05-07 14:47 | -15.29790 | -44.51339 | 38085 ft | 447 kts | 244° |
| 2026-05-07 14:47 | -15.32196 | -44.57228 | 38083 ft | 447 kts | 244° |
| 2026-05-07 14:48 | -15.34619 | -44.63167 | 38084 ft | 448 kts | 244° |
| 2026-05-07 14:48 | -15.37043 | -44.69109 | 38075 ft | 448 kts | 244° |
| 2026-05-07 14:49 | -15.39465 | -44.75056 | 38080 ft | 448 kts | 244° |
| 2026-05-07 14:49 | -15.41871 | -44.80966 | 38078 ft | 448 kts | 244° |
| 2026-05-07 14:50 | -15.44292 | -44.86920 | 38078 ft | 448 kts | 244° |
| 2026-05-07 14:50 | -15.46713 | -44.92878 | 38073 ft | 448 kts | 244° |
| 2026-05-07 14:51 | -15.49133 | -44.98840 | 38076 ft | 449 kts | 244° |
| 2026-05-07 14:51 | -15.51551 | -45.04803 | 38079 ft | 449 kts | 244° |
| 2026-05-07 14:52 | -15.53951 | -45.10724 | 38076 ft | 449 kts | 244° |
| 2026-05-07 14:52 | -15.56366 | -45.16693 | 38075 ft | 449 kts | 244° |
| 2026-05-07 14:53 | -15.58780 | -45.22663 | 38080 ft | 449 kts | 244° |
| 2026-05-07 14:53 | -15.61175 | -45.28595 | 38078 ft | 449 kts | 244° |
| 2026-05-07 14:54 | -15.63584 | -45.34567 | 38080 ft | 449 kts | 244° |
| 2026-05-07 14:54 | -15.65992 | -45.40541 | 38080 ft | 449 kts | 244° |
| 2026-05-07 14:55 | -15.68399 | -45.46517 | 38075 ft | 449 kts | 244° |
| 2026-05-07 14:55 | -15.70804 | -45.52495 | 38080 ft | 449 kts | 244° |
| 2026-05-07 14:56 | -15.73189 | -45.58428 | 38079 ft | 449 kts | 244° |
| 2026-05-07 14:56 | -15.75592 | -45.64410 | 38073 ft | 449 kts | 244° |
| 2026-05-07 14:57 | -15.77992 | -45.70393 | 38075 ft | 449 kts | 244° |
| 2026-05-07 14:57 | -15.80392 | -45.76380 | 38067 ft | 449 kts | 244° |
| 2026-05-07 14:58 | -15.82779 | -45.82327 | 38070 ft | 449 kts | 244° |
| 2026-05-07 14:58 | -15.85187 | -45.88303 | 38071 ft | 449 kts | 244° |
| 2026-05-07 14:59 | -15.87598 | -45.94291 | 38069 ft | 449 kts | 244° |
| 2026-05-07 14:59 | -15.89999 | -46.00267 | 38073 ft | 449 kts | 244° |
| 2026-05-07 15:00 | -15.92402 | -46.06251 | 38067 ft | 449 kts | 244° |
| 2026-05-07 15:00 | -15.94776 | -46.12199 | 38074 ft | 449 kts | 245° |
| 2026-05-07 15:01 | -15.97157 | -46.18193 | 38077 ft | 449 kts | 245° |
| 2026-05-07 15:01 | -15.99537 | -46.24186 | 38081 ft | 448 kts | 245° |
| 2026-05-07 15:02 | -16.01900 | -46.30140 | 38082 ft | 449 kts | 245° |
| 2026-05-07 15:02 | -16.04279 | -46.36136 | 38091 ft | 449 kts | 245° |
| 2026-05-07 15:03 | -16.06652 | -46.42126 | 38098 ft | 448 kts | 245° |
| 2026-05-07 15:03 | -16.09027 | -46.48125 | 38078 ft | 449 kts | 245° |
| 2026-05-07 15:04 | -16.11383 | -46.54081 | 38094 ft | 448 kts | 245° |
| 2026-05-07 15:04 | -16.13751 | -46.60076 | 38089 ft | 448 kts | 245° |
| 2026-05-07 15:05 | -16.16119 | -46.66073 | 38093 ft | 448 kts | 245° |
| 2026-05-07 15:05 | -16.18485 | -46.72074 | 38080 ft | 448 kts | 245° |
| 2026-05-07 15:06 | -16.20962 | -46.77970 | 38086 ft | 446 kts | 239° |
| 2026-05-07 15:06 | -16.24400 | -46.83314 | 38074 ft | 444 kts | 230° |
| 2026-05-07 15:07 | -16.28584 | -46.88008 | 38071 ft | 443 kts | 224° |
| 2026-05-07 15:07 | -16.32967 | -46.92516 | 38074 ft | 443 kts | 224° |
| 2026-05-07 15:08 | -16.37350 | -46.97031 | 38071 ft | 443 kts | 224° |
| 2026-05-07 15:08 | -16.41687 | -47.01539 | 38072 ft | 444 kts | 224° |
| 2026-05-07 15:09 | -16.46044 | -47.06091 | 38085 ft | 444 kts | 224° |
| 2026-05-07 15:09 | -16.50402 | -47.10652 | 38072 ft | 444 kts | 224° |
| 2026-05-07 15:10 | -16.54760 | -47.15215 | 38087 ft | 444 kts | 224° |
| 2026-05-07 15:10 | -16.59089 | -47.19751 | 38076 ft | 444 kts | 224° |
| 2026-05-07 15:11 | -16.63441 | -47.24313 | 38091 ft | 444 kts | 224° |
| 2026-05-07 15:11 | -16.67796 | -47.28882 | 38075 ft | 444 kts | 224° |
| 2026-05-07 15:12 | -16.72150 | -47.33451 | 38090 ft | 444 kts | 224° |
| 2026-05-07 15:12 | -16.76473 | -47.37992 | 38080 ft | 444 kts | 224° |
| 2026-05-07 15:13 | -16.80824 | -47.42566 | 38073 ft | 444 kts | 224° |
| 2026-05-07 15:13 | -16.85170 | -47.47138 | 38075 ft | 444 kts | 225° |
| 2026-05-07 15:14 | -16.89519 | -47.51715 | 38074 ft | 444 kts | 225° |
| 2026-05-07 15:14 | -16.93838 | -47.56265 | 38078 ft | 444 kts | 225° |
| 2026-05-07 15:15 | -16.98185 | -47.60847 | 38070 ft | 444 kts | 225° |
| 2026-05-07 15:15 | -17.02532 | -47.65432 | 38064 ft | 444 kts | 225° |
| 2026-05-07 15:16 | -17.06146 | -47.69246 | 38076 ft | 444 kts | 225° |
| 2026-05-07 15:16 | -17.11195 | -47.74579 | 38069 ft | 444 kts | 225° |
| 2026-05-07 15:17 | -17.15538 | -47.79169 | 38063 ft | 444 kts | 225° |
| 2026-05-07 15:17 | -17.19881 | -47.83763 | 38063 ft | 444 kts | 225° |
| 2026-05-07 15:18 | -17.24224 | -47.88360 | 38059 ft | 444 kts | 225° |
| 2026-05-07 15:18 | -17.28533 | -47.92925 | 38055 ft | 444 kts | 225° |
| 2026-05-07 15:19 | -17.32871 | -47.97523 | 38050 ft | 444 kts | 225° |
| 2026-05-07 15:19 | -17.36471 | -48.01341 | 38052 ft | 444 kts | 225° |
| 2026-05-07 15:20 | -17.40805 | -48.05941 | 38045 ft | 444 kts | 225° |
| 2026-05-07 15:20 | -17.45837 | -48.11286 | 38061 ft | 443 kts | 225° |
| 2026-05-07 15:21 | -17.49465 | -48.15143 | 38047 ft | 443 kts | 225° |
| 2026-05-07 15:21 | -17.53764 | -48.19716 | 38043 ft | 443 kts | 225° |
| 2026-05-07 15:22 | -17.58091 | -48.24322 | 38042 ft | 443 kts | 225° |
| 2026-05-07 15:22 | -17.62412 | -48.28925 | 38039 ft | 443 kts | 225° |
| 2026-05-07 15:23 | -17.66736 | -48.33535 | 38038 ft | 443 kts | 225° |
| 2026-05-07 15:23 | -17.71029 | -48.38113 | 38039 ft | 443 kts | 225° |
| 2026-05-07 15:24 | -17.75347 | -48.42724 | 38032 ft | 443 kts | 225° |
| 2026-05-07 15:24 | -17.80361 | -48.48081 | 38036 ft | 443 kts | 225° |
| 2026-05-07 15:25 | -17.83948 | -48.51916 | 38035 ft | 443 kts | 225° |
| 2026-05-07 15:25 | -17.88262 | -48.56531 | 38027 ft | 443 kts | 225° |
| 2026-05-07 15:26 | -17.92567 | -48.61142 | 38034 ft | 442 kts | 225° |
| 2026-05-07 15:26 | -17.96876 | -48.65759 | 38027 ft | 442 kts | 225° |
| 2026-05-07 15:27 | -18.01154 | -48.70346 | 38027 ft | 442 kts | 225° |
| 2026-05-07 15:27 | -18.05332 | -48.74830 | 38031 ft | 442 kts | 225° |
| 2026-05-07 15:28 | -18.09633 | -48.79449 | 38023 ft | 442 kts | 225° |
| 2026-05-07 15:28 | -18.13900 | -48.84035 | 38025 ft | 441 kts | 225° |
| 2026-05-07 15:29 | -18.18192 | -48.88651 | 38029 ft | 441 kts | 225° |
| 2026-05-07 15:29 | -18.22481 | -48.93270 | 38024 ft | 441 kts | 226° |
| 2026-05-07 15:30 | -18.26562 | -48.97676 | 38025 ft | 441 kts | 226° |
| 2026-05-07 15:30 | -18.30813 | -49.02270 | 38019 ft | 441 kts | 226° |
| 2026-05-07 15:31 | -18.35084 | -49.06890 | 38018 ft | 440 kts | 226° |
| 2026-05-07 15:31 | -18.38868 | -49.10984 | 38023 ft | 440 kts | 226° |
| 2026-05-07 15:32 | -18.43129 | -49.15599 | 38016 ft | 439 kts | 226° |
| 2026-05-07 15:32 | -18.47389 | -49.20216 | 38017 ft | 439 kts | 226° |
| 2026-05-07 15:33 | -18.51645 | -49.24832 | 38013 ft | 439 kts | 226° |
| 2026-05-07 15:33 | -18.55900 | -49.29451 | 38012 ft | 439 kts | 226° |
| 2026-05-07 15:34 | -18.60153 | -49.34070 | 38011 ft | 439 kts | 226° |
| 2026-05-07 15:34 | -18.64400 | -49.38688 | 38009 ft | 438 kts | 226° |
| 2026-05-07 15:35 | -18.68616 | -49.43274 | 38008 ft | 438 kts | 226° |
| 2026-05-07 15:35 | -18.72858 | -49.47894 | 38004 ft | 438 kts | 226° |
| 2026-05-07 15:36 | -18.77097 | -49.52514 | 38002 ft | 438 kts | 226° |
| 2026-05-07 15:36 | -18.81337 | -49.57137 | 38001 ft | 438 kts | 226° |
| 2026-05-07 15:37 | -18.85500 | -49.61830 | 37997 ft | 438 kts | 229° |
| 2026-05-07 15:37 | -18.89542 | -49.66649 | 37999 ft | 438 kts | 229° |
| 2026-05-07 15:38 | -18.93549 | -49.71437 | 37997 ft | 438 kts | 229° |
| 2026-05-07 15:38 | -18.97599 | -49.76247 | 37992 ft | 438 kts | 229° |
| 2026-05-07 15:39 | -19.01654 | -49.81047 | 37991 ft | 438 kts | 229° |
| 2026-05-07 15:39 | -19.05707 | -49.85846 | 37991 ft | 437 kts | 229° |
| 2026-05-07 15:40 | -19.09759 | -49.90647 | 37989 ft | 438 kts | 229° |
| 2026-05-07 15:40 | -19.13767 | -49.95402 | 37993 ft | 437 kts | 229° |
| 2026-05-07 15:41 | -19.17815 | -50.00208 | 37988 ft | 437 kts | 229° |
| 2026-05-07 15:41 | -19.21861 | -50.05016 | 37985 ft | 437 kts | 229° |
| 2026-05-07 15:42 | -19.25904 | -50.09823 | 37989 ft | 437 kts | 229° |
| 2026-05-07 15:42 | -19.29946 | -50.14633 | 37982 ft | 437 kts | 229° |
| 2026-05-07 15:43 | -19.33984 | -50.19443 | 37962 ft | 437 kts | 229° |
| 2026-05-07 15:43 | -19.38043 | -50.24281 | 37981 ft | 437 kts | 229° |
| 2026-05-07 15:44 | -19.42051 | -50.29063 | 37988 ft | 437 kts | 229° |
| 2026-05-07 15:44 | -19.46085 | -50.33880 | 37962 ft | 437 kts | 229° |
| 2026-05-07 15:45 | -19.50118 | -50.38699 | 37981 ft | 437 kts | 229° |
| 2026-05-07 15:45 | -19.54151 | -50.43523 | 37981 ft | 437 kts | 229° |
| 2026-05-07 15:46 | -19.60202 | -50.50767 | 37965 ft | 438 kts | 229° |
| 2026-05-07 15:47 | -19.64236 | -50.55601 | 37976 ft | 438 kts | 229° |
| 2026-05-07 15:47 | -19.68246 | -50.60462 | 37980 ft | 438 kts | 230° |
| 2026-05-07 15:48 | -19.72190 | -50.65385 | 37977 ft | 438 kts | 231° |
| 2026-05-07 15:48 | -19.76124 | -50.70320 | 37979 ft | 438 kts | 231° |
| 2026-05-07 15:49 | -19.80088 | -50.75281 | 37972 ft | 438 kts | 231° |
| 2026-05-07 15:49 | -19.84034 | -50.80214 | 37979 ft | 438 kts | 231° |
| 2026-05-07 15:50 | -19.87981 | -50.85148 | 37956 ft | 438 kts | 231° |
| 2026-05-07 15:50 | -19.91924 | -50.90081 | 37954 ft | 438 kts | 231° |
| 2026-05-07 15:51 | -19.95838 | -50.94984 | 37960 ft | 438 kts | 231° |
| 2026-05-07 15:51 | -19.99775 | -50.99919 | 37956 ft | 438 kts | 231° |
| 2026-05-07 15:52 | -20.03708 | -51.04853 | 37959 ft | 437 kts | 231° |
| 2026-05-07 15:52 | -20.07636 | -51.09785 | 37956 ft | 437 kts | 231° |
| 2026-05-07 15:53 | -20.11560 | -51.14717 | 37955 ft | 437 kts | 231° |
| 2026-05-07 15:53 | -20.15479 | -51.19646 | 37952 ft | 437 kts | 231° |
| 2026-05-07 15:54 | -20.19402 | -51.24584 | 37955 ft | 437 kts | 231° |
| 2026-05-07 15:54 | -20.23325 | -51.29527 | 37953 ft | 437 kts | 231° |
| 2026-05-07 15:55 | -20.27251 | -51.34478 | 37952 ft | 438 kts | 231° |
| 2026-05-07 15:55 | -20.31180 | -51.39437 | 37954 ft | 438 kts | 231° |
| 2026-05-07 15:56 | -20.35012 | -51.44278 | 37951 ft | 439 kts | 231° |
| 2026-05-07 15:56 | -20.38948 | -51.49253 | 37952 ft | 439 kts | 231° |
| 2026-05-07 15:57 | -20.42885 | -51.54235 | 37951 ft | 439 kts | 231° |
| 2026-05-07 15:57 | -20.46822 | -51.59221 | 37953 ft | 439 kts | 231° |
| 2026-05-07 15:58 | -20.50758 | -51.64210 | 37946 ft | 440 kts | 231° |
| 2026-05-07 15:58 | -20.54699 | -51.69210 | 37941 ft | 440 kts | 231° |
| 2026-05-07 15:59 | -20.58637 | -51.74211 | 37945 ft | 440 kts | 231° |
| 2026-05-07 15:59 | -20.62579 | -51.79221 | 37939 ft | 441 kts | 231° |
| 2026-05-07 16:00 | -20.66525 | -51.84240 | 37938 ft | 441 kts | 232° |
| 2026-05-07 16:00 | -20.70471 | -51.89263 | 37936 ft | 442 kts | 232° |
| 2026-05-07 16:01 | -20.74421 | -51.94298 | 37935 ft | 442 kts | 232° |
| 2026-05-07 16:01 | -20.78366 | -51.99329 | 37936 ft | 442 kts | 232° |
| 2026-05-07 16:02 | -20.82313 | -52.04367 | 37933 ft | 442 kts | 232° |
| 2026-05-07 16:02 | -20.86253 | -52.09402 | 37929 ft | 442 kts | 232° |
| 2026-05-07 16:03 | -20.90193 | -52.14441 | 37931 ft | 441 kts | 232° |
| 2026-05-07 16:03 | -20.94127 | -52.19476 | 37929 ft | 441 kts | 232° |
| 2026-05-07 16:04 | -20.98056 | -52.24511 | 37926 ft | 440 kts | 232° |
| 2026-05-07 16:04 | -21.01978 | -52.29539 | 37931 ft | 440 kts | 232° |
| 2026-05-07 16:05 | -21.05895 | -52.34566 | 37931 ft | 440 kts | 232° |
| 2026-05-07 16:05 | -21.09810 | -52.39597 | 37924 ft | 440 kts | 232° |
| 2026-05-07 16:06 | -21.13723 | -52.44628 | 37925 ft | 440 kts | 232° |
| 2026-05-07 16:06 | -21.17634 | -52.49661 | 37926 ft | 440 kts | 232° |
| 2026-05-07 16:07 | -21.21546 | -52.54701 | 37933 ft | 440 kts | 232° |
| 2026-05-07 16:07 | -21.25456 | -52.59742 | 37925 ft | 440 kts | 232° |
| 2026-05-07 16:08 | -21.29368 | -52.64790 | 37922 ft | 440 kts | 233° |
| 2026-05-07 16:08 | -21.33277 | -52.69841 | 37923 ft | 440 kts | 233° |
| 2026-05-07 16:09 | -21.37159 | -52.74859 | 37924 ft | 440 kts | 233° |
| 2026-05-07 16:09 | -21.41067 | -52.79916 | 37921 ft | 440 kts | 233° |
| 2026-05-07 16:10 | -21.44970 | -52.84973 | 37922 ft | 440 kts | 233° |
| 2026-05-07 16:10 | -21.48875 | -52.90034 | 37922 ft | 440 kts | 233° |
| 2026-05-07 16:11 | -21.52777 | -52.95099 | 37921 ft | 440 kts | 233° |
| 2026-05-07 16:11 | -21.56676 | -53.00163 | 37925 ft | 440 kts | 233° |
| 2026-05-07 16:12 | -21.60575 | -53.05231 | 37917 ft | 440 kts | 233° |
| 2026-05-07 16:12 | -21.64468 | -53.10297 | 37916 ft | 439 kts | 233° |
| 2026-05-07 16:13 | -21.68359 | -53.15365 | 37910 ft | 439 kts | 233° |
| 2026-05-07 16:13 | -21.72244 | -53.20430 | 37914 ft | 439 kts | 233° |
| 2026-05-07 16:14 | -21.76130 | -53.25502 | 37912 ft | 439 kts | 233° |
| 2026-05-07 16:14 | -21.80016 | -53.30576 | 37914 ft | 439 kts | 233° |
| 2026-05-07 16:15 | -21.83897 | -53.35651 | 37906 ft | 439 kts | 233° |
| 2026-05-07 16:15 | -21.87779 | -53.40732 | 37901 ft | 439 kts | 233° |
| 2026-05-07 16:16 | -21.91004 | -53.44955 | 37905 ft | 439 kts | 233° |
| 2026-05-07 16:16 | -21.95504 | -53.50855 | 37904 ft | 439 kts | 233° |
| 2026-05-07 16:17 | -21.99376 | -53.55936 | 37898 ft | 438 kts | 233° |
| 2026-05-07 16:17 | -22.03241 | -53.61014 | 37896 ft | 438 kts | 233° |
| 2026-05-07 16:18 | -22.06476 | -53.65267 | 37894 ft | 438 kts | 233° |
| 2026-05-07 16:18 | -22.10332 | -53.70341 | 37893 ft | 437 kts | 234° |
| 2026-05-07 16:19 | -22.14180 | -53.75409 | 37896 ft | 437 kts | 234° |
| 2026-05-07 16:19 | -22.18024 | -53.80476 | 37891 ft | 436 kts | 234° |
| 2026-05-07 16:20 | -22.21863 | -53.85544 | 37886 ft | 436 kts | 234° |
| 2026-05-07 16:20 | -22.25694 | -53.90604 | 37892 ft | 435 kts | 234° |
| 2026-05-07 16:21 | -22.29496 | -53.95632 | 37884 ft | 435 kts | 234° |
| 2026-05-07 16:21 | -22.33324 | -54.00697 | 37890 ft | 435 kts | 234° |
| 2026-05-07 16:22 | -22.37143 | -54.05757 | 37889 ft | 435 kts | 234° |
| 2026-05-07 16:22 | -22.40962 | -54.10820 | 37887 ft | 434 kts | 234° |
| 2026-05-07 16:23 | -22.44775 | -54.15882 | 37884 ft | 434 kts | 234° |
| 2026-05-07 16:23 | -22.48587 | -54.20946 | 37885 ft | 434 kts | 234° |
| 2026-05-07 16:24 | -22.52397 | -54.26013 | 37876 ft | 434 kts | 234° |
| 2026-05-07 16:24 | -22.56201 | -54.31077 | 37882 ft | 433 kts | 234° |
| 2026-05-07 16:25 | -22.60002 | -54.36140 | 37875 ft | 433 kts | 234° |
| 2026-05-07 16:25 | -22.63798 | -54.41203 | 37880 ft | 433 kts | 234° |
| 2026-05-07 16:26 | -22.67590 | -54.46267 | 37879 ft | 433 kts | 234° |
| 2026-05-07 16:26 | -22.71383 | -54.51334 | 37874 ft | 433 kts | 234° |
| 2026-05-07 16:27 | -22.75170 | -54.56400 | 37869 ft | 433 kts | 234° |
| 2026-05-07 16:27 | -22.78957 | -54.61470 | 37872 ft | 433 kts | 234° |
| 2026-05-07 16:28 | -22.82724 | -54.66519 | 37867 ft | 433 kts | 234° |
| 2026-05-07 16:28 | -22.86510 | -54.71597 | 37874 ft | 432 kts | 234° |
| 2026-05-07 16:29 | -22.90289 | -54.76673 | 37863 ft | 432 kts | 234° |
| 2026-05-07 16:29 | -22.92176 | -54.79210 | 37988 ft | 434 kts | 234° |
| 2026-05-07 16:29 | -22.94065 | -54.81748 | 38465 ft | 430 kts | 234° |
| 2026-05-07 16:29 | -22.95935 | -54.84261 | 38919 ft | 426 kts | 234° |
| 2026-05-07 16:30 | -22.97796 | -54.86764 | 39258 ft | 424 kts | 234° |
| 2026-05-07 16:30 | -22.99644 | -54.89253 | 39530 ft | 424 kts | 234° |
| 2026-05-07 16:30 | -23.01498 | -54.91752 | 39736 ft | 425 kts | 234° |
| 2026-05-07 16:31 | -23.05222 | -54.96776 | 39841 ft | 428 kts | 234° |
| 2026-05-07 16:31 | -23.08945 | -55.01799 | 39847 ft | 426 kts | 234° |
| 2026-05-07 16:32 | -23.12652 | -55.06805 | 39852 ft | 424 kts | 234° |
| 2026-05-07 16:32 | -23.16344 | -55.11796 | 39855 ft | 423 kts | 234° |
| 2026-05-07 16:33 | -23.20001 | -55.16747 | 39847 ft | 423 kts | 234° |
| 2026-05-07 16:33 | -23.23681 | -55.21732 | 39847 ft | 422 kts | 234° |
| 2026-05-07 16:34 | -23.27354 | -55.26714 | 39844 ft | 422 kts | 234° |
| 2026-05-07 16:34 | -23.31026 | -55.31699 | 39846 ft | 422 kts | 235° |
| 2026-05-07 16:35 | -23.34701 | -55.36692 | 39838 ft | 423 kts | 235° |
| 2026-05-07 16:35 | -23.38379 | -55.41695 | 39837 ft | 423 kts | 235° |
| 2026-05-07 16:36 | -23.42057 | -55.46702 | 39837 ft | 424 kts | 235° |
| 2026-05-07 16:36 | -23.45739 | -55.51720 | 39825 ft | 424 kts | 235° |
| 2026-05-07 16:37 | -23.49419 | -55.56741 | 39823 ft | 424 kts | 235° |
| 2026-05-07 16:37 | -23.53100 | -55.61767 | 39821 ft | 424 kts | 235° |
| 2026-05-07 16:38 | -23.56782 | -55.66800 | 39813 ft | 425 kts | 235° |
| 2026-05-07 16:38 | -23.60465 | -55.71840 | 39806 ft | 425 kts | 235° |
| 2026-05-07 16:39 | -23.64227 | -55.76812 | 39813 ft | 427 kts | 231° |
| 2026-05-07 16:39 | -23.68453 | -55.81380 | 39800 ft | 428 kts | 229° |
| 2026-05-07 16:40 | -23.72705 | -55.85909 | 39808 ft | 427 kts | 229° |
| 2026-05-07 16:40 | -23.76948 | -55.90454 | 39799 ft | 427 kts | 229° |
| 2026-05-07 16:41 | -23.81165 | -55.94991 | 39800 ft | 427 kts | 229° |
| 2026-05-07 16:41 | -23.85366 | -55.99521 | 39939 ft | 427 kts | 232° |
| 2026-05-07 16:42 | -23.89612 | -56.04105 | 39828 ft | 431 kts | 232° |
| 2026-05-07 16:42 | -23.93886 | -56.08725 | 39805 ft | 433 kts | 232° |
| 2026-05-07 16:43 | -23.98168 | -56.13355 | 39797 ft | 433 kts | 232° |
| 2026-05-07 16:43 | -24.02452 | -56.17992 | 39791 ft | 434 kts | 232° |
| 2026-05-07 16:44 | -24.06740 | -56.22637 | 39790 ft | 434 kts | 232° |
| 2026-05-07 16:44 | -24.11023 | -56.27283 | 39784 ft | 434 kts | 232° |
| 2026-05-07 16:45 | -24.15308 | -56.31935 | 39779 ft | 434 kts | 232° |
| 2026-05-07 16:45 | -24.19586 | -56.36584 | 39777 ft | 433 kts | 232° |
| 2026-05-07 16:46 | -24.23865 | -56.41240 | 39767 ft | 433 kts | 233° |
| 2026-05-07 16:46 | -24.28131 | -56.45885 | 39778 ft | 432 kts | 233° |
| 2026-05-07 16:47 | -24.32391 | -56.50530 | 39761 ft | 432 kts | 233° |
| 2026-05-07 16:47 | -24.36650 | -56.55178 | 39771 ft | 432 kts | 233° |
| 2026-05-07 16:48 | -24.40908 | -56.59829 | 39764 ft | 432 kts | 233° |
| 2026-05-07 16:48 | -24.45164 | -56.64483 | 39764 ft | 432 kts | 233° |
| 2026-05-07 16:49 | -24.49419 | -56.69140 | 39758 ft | 432 kts | 233° |
| 2026-05-07 16:49 | -24.53673 | -56.73803 | 39756 ft | 432 kts | 233° |
| 2026-05-07 16:50 | -24.57930 | -56.78471 | 39750 ft | 432 kts | 233° |
| 2026-05-07 16:50 | -24.62182 | -56.83140 | 39750 ft | 432 kts | 233° |
| 2026-05-07 16:51 | -24.66437 | -56.87817 | 39743 ft | 433 kts | 233° |
| 2026-05-07 16:51 | -24.70688 | -56.92504 | 39740 ft | 433 kts | 233° |
| 2026-05-07 16:52 | -24.74937 | -56.97198 | 39729 ft | 433 kts | 233° |
| 2026-05-07 16:52 | -24.79159 | -57.01866 | 39729 ft | 433 kts | 233° |
| 2026-05-07 16:53 | -24.83407 | -57.06569 | 39729 ft | 433 kts | 234° |
| 2026-05-07 16:53 | -24.87683 | -57.11307 | 39723 ft | 433 kts | 234° |
| 2026-05-07 16:54 | -24.91932 | -57.16020 | 39723 ft | 433 kts | 234° |
| 2026-05-07 16:54 | -24.96178 | -57.20734 | 39721 ft | 434 kts | 234° |
| 2026-05-07 16:55 | -25.00430 | -57.25460 | 39721 ft | 434 kts | 234° |
| 2026-05-07 16:55 | -25.04680 | -57.30189 | 39722 ft | 434 kts | 234° |
| 2026-05-07 16:56 | -25.08931 | -57.34924 | 39717 ft | 434 kts | 234° |
| 2026-05-07 16:56 | -25.15304 | -57.42033 | 39719 ft | 434 kts | 234° |
| 2026-05-07 16:57 | -25.19551 | -57.46775 | 39729 ft | 434 kts | 234° |
| 2026-05-07 16:57 | -25.23847 | -57.51408 | 39704 ft | 439 kts | 230° |
| 2026-05-07 16:58 | -25.28811 | -57.55465 | 39698 ft | 448 kts | 223° |
| 2026-05-07 16:58 | -25.34052 | -57.59198 | 39699 ft | 448 kts | 223° |
| 2026-05-07 16:59 | -25.39290 | -57.62936 | 39689 ft | 448 kts | 223° |
| 2026-05-07 16:59 | -25.44501 | -57.66690 | 39686 ft | 447 kts | 224° |
| 2026-05-07 17:00 | -25.49703 | -57.70452 | 39677 ft | 446 kts | 224° |
| 2026-05-07 17:00 | -25.54894 | -57.74213 | 39677 ft | 446 kts | 224° |
| 2026-05-07 17:01 | -25.60082 | -57.77972 | 39685 ft | 445 kts | 224° |
| 2026-05-07 17:01 | -25.65266 | -57.81733 | 39687 ft | 445 kts | 224° |
| 2026-05-07 17:02 | -25.70445 | -57.85495 | 39683 ft | 445 kts | 224° |
| 2026-05-07 17:02 | -25.74754 | -57.88628 | 39684 ft | 445 kts | 224° |
| 2026-05-07 17:03 | -25.79934 | -57.92403 | 39679 ft | 446 kts | 224° |
| 2026-05-07 17:03 | -25.85117 | -57.96188 | 39683 ft | 446 kts | 224° |
| 2026-05-07 17:04 | -25.90304 | -57.99979 | 39677 ft | 447 kts | 224° |
| 2026-05-07 17:04 | -25.95498 | -58.03779 | 39675 ft | 447 kts | 224° |
| 2026-05-07 17:05 | -26.00694 | -58.07585 | 39679 ft | 447 kts | 224° |
| 2026-05-07 17:05 | -26.05892 | -58.11397 | 39671 ft | 448 kts | 224° |
| 2026-05-07 17:06 | -26.11101 | -58.15221 | 39667 ft | 449 kts | 224° |
| 2026-05-07 17:06 | -26.16317 | -58.19056 | 39669 ft | 448 kts | 225° |
| 2026-05-07 17:07 | -26.20964 | -58.23437 | 39674 ft | 432 kts | 235° |
| 2026-05-07 17:07 | -26.24838 | -58.28428 | 39667 ft | 420 kts | 243° |
| 2026-05-07 17:08 | -26.28201 | -58.33728 | 39667 ft | 419 kts | 244° |
| 2026-05-07 17:08 | -26.31529 | -58.39053 | 39660 ft | 419 kts | 243° |
| 2026-05-07 17:09 | -26.34869 | -58.44372 | 39658 ft | 419 kts | 243° |
| 2026-05-07 17:09 | -26.38221 | -58.49688 | 39651 ft | 419 kts | 243° |
| 2026-05-07 17:10 | -26.41572 | -58.54998 | 39638 ft | 419 kts | 243° |
| 2026-05-07 17:10 | -26.44922 | -58.60311 | 39638 ft | 419 kts | 243° |
| 2026-05-07 17:11 | -26.48271 | -58.65630 | 39636 ft | 419 kts | 243° |
| 2026-05-07 17:11 | -26.51616 | -58.70947 | 39638 ft | 419 kts | 243° |
| 2026-05-07 17:12 | -26.54959 | -58.76270 | 39635 ft | 418 kts | 243° |
| 2026-05-07 17:12 | -26.58299 | -58.81593 | 39623 ft | 418 kts | 243° |
| 2026-05-07 17:13 | -26.61637 | -58.86920 | 39625 ft | 418 kts | 243° |
| 2026-05-07 17:13 | -26.64975 | -58.92252 | 39630 ft | 419 kts | 242° |
| 2026-05-07 17:14 | -26.68314 | -58.97594 | 39629 ft | 419 kts | 242° |
| 2026-05-07 17:14 | -26.71655 | -59.02945 | 39630 ft | 420 kts | 242° |
| 2026-05-07 17:15 | -26.75001 | -59.08310 | 39628 ft | 421 kts | 242° |
| 2026-05-07 17:15 | -26.78357 | -59.13697 | 39627 ft | 423 kts | 242° |
| 2026-05-07 17:16 | -26.81725 | -59.19111 | 39630 ft | 424 kts | 242° |
| 2026-05-07 17:16 | -26.85104 | -59.24548 | 39625 ft | 427 kts | 242° |
| 2026-05-07 17:17 | -26.88483 | -59.29992 | 39632 ft | 430 kts | 242° |
| 2026-05-07 17:17 | -26.91902 | -59.35508 | 39636 ft | 433 kts | 242° |
| 2026-05-07 17:18 | -26.95343 | -59.41064 | 39632 ft | 435 kts | 242° |
| 2026-05-07 17:18 | -26.98801 | -59.46656 | 39639 ft | 438 kts | 242° |
| 2026-05-07 17:19 | -27.02280 | -59.52289 | 39653 ft | 440 kts | 242° |
| 2026-05-07 17:19 | -27.05778 | -59.57959 | 39652 ft | 444 kts | 242° |
| 2026-05-07 17:20 | -27.09311 | -59.63695 | 39647 ft | 448 kts | 242° |
| 2026-05-07 17:20 | -27.12855 | -59.69454 | 39660 ft | 449 kts | 242° |
| 2026-05-07 17:21 | -27.16411 | -59.75240 | 39671 ft | 451 kts | 242° |
| 2026-05-07 17:21 | -27.19973 | -59.81044 | 39686 ft | 452 kts | 242° |
| 2026-05-07 17:22 | -27.23546 | -59.86875 | 39681 ft | 454 kts | 242° |
| 2026-05-07 17:22 | -27.27126 | -59.92722 | 39677 ft | 454 kts | 243° |
| 2026-05-07 17:23 | -27.30697 | -59.98563 | 39686 ft | 452 kts | 243° |
| 2026-05-07 17:23 | -27.34253 | -60.04391 | 39706 ft | 452 kts | 243° |
| 2026-05-07 17:24 | -27.37808 | -60.10219 | 39699 ft | 452 kts | 243° |
| 2026-05-07 17:24 | -27.41376 | -60.16028 | 39708 ft | 450 kts | 243° |
| 2026-05-07 17:25 | -27.44935 | -60.21819 | 39720 ft | 449 kts | 243° |
| 2026-05-07 17:25 | -27.48480 | -60.27599 | 39720 ft | 448 kts | 243° |
| 2026-05-07 17:26 | -27.52011 | -60.33367 | 39726 ft | 446 kts | 243° |
| 2026-05-07 17:26 | -27.55525 | -60.39118 | 39759 ft | 445 kts | 243° |
| 2026-05-07 17:27 | -27.59013 | -60.44836 | 39766 ft | 444 kts | 243° |
| 2026-05-07 17:27 | -27.62506 | -60.50567 | 39778 ft | 443 kts | 243° |
| 2026-05-07 17:28 | -27.65967 | -60.56254 | 39788 ft | 442 kts | 243° |
| 2026-05-07 17:28 | -27.69446 | -60.61979 | 39777 ft | 442 kts | 243° |
| 2026-05-07 17:29 | -27.72907 | -60.67680 | 39785 ft | 441 kts | 243° |
| 2026-05-07 17:29 | -27.76367 | -60.73387 | 39800 ft | 441 kts | 243° |
| 2026-05-07 17:30 | -27.79835 | -60.79119 | 39787 ft | 442 kts | 243° |
| 2026-05-07 17:30 | -27.83301 | -60.84850 | 39802 ft | 441 kts | 243° |
| 2026-05-07 17:31 | -27.86756 | -60.90568 | 39814 ft | 440 kts | 243° |
| 2026-05-07 17:31 | -27.90195 | -60.96270 | 39816 ft | 438 kts | 243° |
| 2026-05-07 17:32 | -27.93623 | -61.01961 | 39817 ft | 437 kts | 243° |
| 2026-05-07 17:32 | -27.96465 | -61.06688 | 39818 ft | 437 kts | 243° |
| 2026-05-07 17:33 | -28.00459 | -61.13337 | 39832 ft | 437 kts | 243° |
| 2026-05-07 17:33 | -28.03876 | -61.19034 | 39829 ft | 438 kts | 243° |
| 2026-05-07 17:34 | -28.07294 | -61.24740 | 39833 ft | 438 kts | 243° |
| 2026-05-07 17:34 | -28.10717 | -61.30462 | 39838 ft | 439 kts | 243° |
| 2026-05-07 17:35 | -28.14123 | -61.36162 | 39844 ft | 440 kts | 243° |
| 2026-05-07 17:35 | -28.17555 | -61.41914 | 39851 ft | 441 kts | 243° |
| 2026-05-07 17:36 | -28.20994 | -61.47685 | 39845 ft | 442 kts | 243° |
| 2026-05-07 17:36 | -28.24434 | -61.53465 | 39858 ft | 443 kts | 243° |
| 2026-05-07 17:37 | -28.27879 | -61.59261 | 39862 ft | 444 kts | 243° |
| 2026-05-07 17:37 | -28.31330 | -61.65076 | 39867 ft | 445 kts | 243° |
| 2026-05-07 17:38 | -28.34787 | -61.70910 | 39864 ft | 446 kts | 243° |
| 2026-05-07 17:38 | -28.38249 | -61.76758 | 39867 ft | 446 kts | 244° |
| 2026-05-07 17:39 | -28.41712 | -61.82617 | 39866 ft | 447 kts | 244° |
| 2026-05-07 17:39 | -28.45177 | -61.88486 | 39871 ft | 447 kts | 244° |
| 2026-05-07 17:40 | -28.48618 | -61.94325 | 39875 ft | 448 kts | 244° |
| 2026-05-07 17:40 | -28.52086 | -62.00218 | 39880 ft | 449 kts | 244° |
| 2026-05-07 17:41 | -28.55557 | -62.06122 | 39877 ft | 449 kts | 244° |
| 2026-05-07 17:41 | -28.59030 | -62.12039 | 39879 ft | 450 kts | 244° |
| 2026-05-07 17:42 | -28.62506 | -62.17970 | 39881 ft | 451 kts | 244° |
| 2026-05-07 17:42 | -28.65987 | -62.23916 | 39884 ft | 452 kts | 244° |
| 2026-05-07 17:43 | -28.69472 | -62.29881 | 39880 ft | 453 kts | 244° |
| 2026-05-07 17:43 | -28.72944 | -62.35829 | 39882 ft | 454 kts | 244° |
| 2026-05-07 17:44 | -28.76441 | -62.41829 | 39892 ft | 455 kts | 244° |
| 2026-05-07 17:44 | -28.79945 | -62.47850 | 39892 ft | 456 kts | 244° |
| 2026-05-07 17:45 | -28.83456 | -62.53891 | 39884 ft | 457 kts | 243° |
| 2026-05-07 17:45 | -28.86971 | -62.59946 | 39897 ft | 458 kts | 243° |
| 2026-05-07 17:46 | -28.90462 | -62.65971 | 39893 ft | 458 kts | 243° |
| 2026-05-07 17:46 | -28.93974 | -62.72039 | 39901 ft | 458 kts | 243° |
| 2026-05-07 17:47 | -28.97484 | -62.78113 | 39902 ft | 458 kts | 243° |
| 2026-05-07 17:47 | -29.00987 | -62.84185 | 39905 ft | 457 kts | 243° |
| 2026-05-07 17:48 | -29.04481 | -62.90248 | 39904 ft | 457 kts | 242° |
| 2026-05-07 17:48 | -29.07968 | -62.96310 | 39906 ft | 456 kts | 242° |
| 2026-05-07 17:49 | -29.11445 | -63.02362 | 39903 ft | 455 kts | 242° |
| 2026-05-07 17:49 | -29.14913 | -63.08409 | 39905 ft | 454 kts | 242° |
| 2026-05-07 17:50 | -29.18351 | -63.14411 | 39901 ft | 454 kts | 242° |
| 2026-05-07 17:50 | -29.21803 | -63.20446 | 39904 ft | 453 kts | 242° |
| 2026-05-07 17:51 | -29.25252 | -63.26486 | 39902 ft | 453 kts | 242° |
| 2026-05-07 17:51 | -29.28693 | -63.32519 | 39900 ft | 452 kts | 241° |
| 2026-05-07 17:52 | -29.32132 | -63.38558 | 39906 ft | 452 kts | 241° |
| 2026-05-07 17:52 | -29.34985 | -63.43576 | 39887 ft | 452 kts | 241° |
| 2026-05-07 17:53 | -29.38417 | -63.49619 | 39886 ft | 453 kts | 241° |
| 2026-05-07 17:53 | -29.42406 | -63.56654 | 39893 ft | 453 kts | 241° |
| 2026-05-07 17:54 | -29.45284 | -63.61737 | 39896 ft | 453 kts | 240° |
| 2026-05-07 17:54 | -29.48695 | -63.67769 | 39896 ft | 454 kts | 240° |
| 2026-05-07 17:55 | -29.52128 | -63.73851 | 39901 ft | 454 kts | 240° |
| 2026-05-07 17:55 | -29.55562 | -63.79941 | 39894 ft | 454 kts | 240° |
| 2026-05-07 17:56 | -29.58992 | -63.86035 | 39889 ft | 455 kts | 240° |
| 2026-05-07 17:56 | -29.62425 | -63.92142 | 39895 ft | 455 kts | 240° |
| 2026-05-07 17:57 | -29.65850 | -63.98244 | 39886 ft | 455 kts | 240° |
| 2026-05-07 17:57 | -29.69279 | -64.04363 | 39881 ft | 455 kts | 240° |
| 2026-05-07 17:58 | -29.72686 | -64.10453 | 39878 ft | 454 kts | 239° |
| 2026-05-07 17:58 | -29.76080 | -64.16528 | 39876 ft | 454 kts | 239° |
| 2026-05-07 17:59 | -29.79492 | -64.22643 | 39877 ft | 454 kts | 239° |
| 2026-05-07 17:59 | -29.82900 | -64.28763 | 39872 ft | 454 kts | 239° |
| 2026-05-07 18:00 | -29.86306 | -64.34886 | 39871 ft | 453 kts | 239° |
| 2026-05-07 18:00 | -29.89702 | -64.41003 | 39872 ft | 453 kts | 239° |
| 2026-05-07 18:01 | -29.93090 | -64.47112 | 39879 ft | 452 kts | 238° |
| 2026-05-07 18:01 | -29.96499 | -64.53198 | 39886 ft | 451 kts | 238° |
| 2026-05-07 18:02 | -30.01689 | -64.62250 | 39891 ft | 450 kts | 237° |
| 2026-05-07 18:03 | -30.05137 | -64.68278 | 39894 ft | 450 kts | 237° |
| 2026-05-07 18:03 | -30.08570 | -64.74303 | 39899 ft | 449 kts | 237° |
| 2026-05-07 18:04 | -30.11975 | -64.80296 | 39898 ft | 448 kts | 237° |
| 2026-05-07 18:04 | -30.15374 | -64.86286 | 39907 ft | 448 kts | 237° |
| 2026-05-07 18:05 | -30.18789 | -64.92313 | 39922 ft | 448 kts | 237° |
| 2026-05-07 18:05 | -30.22199 | -64.98340 | 39916 ft | 448 kts | 236° |
| 2026-05-07 18:06 | -30.25605 | -65.04369 | 39924 ft | 448 kts | 236° |
| 2026-05-07 18:06 | -30.29007 | -65.10401 | 39929 ft | 447 kts | 236° |
| 2026-05-07 18:07 | -30.32404 | -65.16431 | 39931 ft | 447 kts | 236° |
| 2026-05-07 18:07 | -30.35791 | -65.22454 | 39935 ft | 446 kts | 236° |
| 2026-05-07 18:08 | -30.39169 | -65.28470 | 39937 ft | 445 kts | 236° |
| 2026-05-07 18:08 | -30.42533 | -65.34470 | 39939 ft | 443 kts | 236° |
| 2026-05-07 18:09 | -30.45880 | -65.40449 | 39941 ft | 442 kts | 235° |
| 2026-05-07 18:09 | -30.49217 | -65.46418 | 39943 ft | 440 kts | 235° |
| 2026-05-07 18:10 | -30.52536 | -65.52365 | 39944 ft | 438 kts | 235° |
| 2026-05-07 18:10 | -30.55790 | -65.58207 | 39942 ft | 428 kts | 234° |
| 2026-05-07 18:11 | -30.59005 | -65.63985 | 39940 ft | 424 kts | 234° |
| 2026-05-07 18:11 | -30.62168 | -65.69674 | 39943 ft | 421 kts | 234° |
| 2026-05-07 18:12 | -30.65329 | -65.75371 | 39945 ft | 418 kts | 234° |
| 2026-05-07 18:12 | -30.68472 | -65.81041 | 39947 ft | 417 kts | 234° |
| 2026-05-07 18:13 | -30.71600 | -65.86694 | 39948 ft | 415 kts | 234° |
| 2026-05-07 18:13 | -30.74718 | -65.92336 | 39949 ft | 414 kts | 234° |
| 2026-05-07 18:14 | -30.77824 | -65.97966 | 39945 ft | 413 kts | 234° |
| 2026-05-07 18:14 | -30.80923 | -66.03590 | 39950 ft | 412 kts | 233° |
| 2026-05-07 18:15 | -30.83988 | -66.09162 | 39953 ft | 411 kts | 233° |
| 2026-05-07 18:15 | -30.87064 | -66.14760 | 39961 ft | 410 kts | 234° |
| 2026-05-07 18:16 | -30.90133 | -66.20353 | 39963 ft | 410 kts | 233° |
| 2026-05-07 18:16 | -30.93193 | -66.25939 | 39965 ft | 409 kts | 234° |
| 2026-05-07 18:17 | -30.96245 | -66.31517 | 39969 ft | 408 kts | 234° |
| 2026-05-07 18:17 | -30.99289 | -66.37090 | 39975 ft | 407 kts | 234° |
| 2026-05-07 18:18 | -31.02328 | -66.42660 | 39982 ft | 407 kts | 234° |
| 2026-05-07 18:18 | -31.05362 | -66.48231 | 39983 ft | 407 kts | 234° |
| 2026-05-07 18:19 | -31.08372 | -66.53763 | 39982 ft | 406 kts | 234° |
| 2026-05-07 18:19 | -31.11377 | -66.59296 | 39984 ft | 405 kts | 234° |
| 2026-05-07 18:20 | -31.14391 | -66.64852 | 39988 ft | 405 kts | 234° |
| 2026-05-07 18:20 | -31.17397 | -66.70404 | 39992 ft | 404 kts | 234° |
| 2026-05-07 18:21 | -31.20396 | -66.75948 | 39985 ft | 404 kts | 234° |
| 2026-05-07 18:21 | -31.23390 | -66.81493 | 39984 ft | 403 kts | 233° |
| 2026-05-07 18:22 | -31.26373 | -66.87023 | 39984 ft | 402 kts | 233° |
| 2026-05-07 18:22 | -31.29346 | -66.92543 | 39977 ft | 401 kts | 233° |
| 2026-05-07 18:23 | -31.32311 | -66.98057 | 39980 ft | 400 kts | 233° |
| 2026-05-07 18:23 | -31.35270 | -67.03566 | 39987 ft | 400 kts | 233° |
| 2026-05-07 18:24 | -31.38226 | -67.09078 | 39978 ft | 400 kts | 233° |
| 2026-05-07 18:24 | -31.41179 | -67.14592 | 39982 ft | 400 kts | 233° |
| 2026-05-07 18:25 | -31.44112 | -67.20076 | 39980 ft | 400 kts | 233° |
| 2026-05-07 18:25 | -31.47066 | -67.25607 | 39991 ft | 401 kts | 233° |
| 2026-05-07 18:26 | -31.50028 | -67.31164 | 39989 ft | 402 kts | 233° |
| 2026-05-07 18:26 | -31.52993 | -67.36730 | 39998 ft | 403 kts | 233° |
| 2026-05-07 18:27 | -31.55963 | -67.42317 | 39996 ft | 404 kts | 233° |
| 2026-05-07 18:27 | -31.58939 | -67.47921 | 39993 ft | 405 kts | 232° |
| 2026-05-07 18:28 | -31.61919 | -67.53544 | 39995 ft | 406 kts | 232° |
| 2026-05-07 18:28 | -31.64903 | -67.59180 | 39994 ft | 407 kts | 232° |
| 2026-05-07 18:29 | -31.67887 | -67.64827 | 39991 ft | 408 kts | 232° |
| 2026-05-07 18:29 | -31.70876 | -67.70490 | 39990 ft | 408 kts | 232° |
| 2026-05-07 18:30 | -31.73863 | -67.76160 | 39986 ft | 408 kts | 232° |
| 2026-05-07 18:30 | -31.76854 | -67.81844 | 39987 ft | 409 kts | 232° |
| 2026-05-07 18:31 | -31.79844 | -67.87535 | 39988 ft | 409 kts | 232° |
| 2026-05-07 18:31 | -31.82835 | -67.93235 | 39990 ft | 410 kts | 232° |
| 2026-05-07 18:32 | -31.85822 | -67.98937 | 39987 ft | 410 kts | 232° |
| 2026-05-07 18:32 | -31.88807 | -68.04645 | 39984 ft | 410 kts | 232° |
| 2026-05-07 18:33 | -31.91789 | -68.10355 | 39981 ft | 409 kts | 232° |
| 2026-05-07 18:33 | -31.94743 | -68.16019 | 39983 ft | 409 kts | 232° |
| 2026-05-07 18:34 | -31.97713 | -68.21724 | 39980 ft | 409 kts | 232° |
| 2026-05-07 18:34 | -32.00685 | -68.27440 | 39979 ft | 409 kts | 232° |
| 2026-05-07 18:35 | -32.03647 | -68.33146 | 39979 ft | 409 kts | 233° |
| 2026-05-07 18:35 | -32.06614 | -68.38868 | 39979 ft | 409 kts | 233° |
| 2026-05-07 18:36 | -32.09576 | -68.44591 | 39975 ft | 409 kts | 233° |
| 2026-05-07 18:36 | -32.12540 | -68.50326 | 39976 ft | 410 kts | 233° |
| 2026-05-07 18:37 | -32.15506 | -68.56074 | 39980 ft | 410 kts | 233° |
| 2026-05-07 18:37 | -32.18477 | -68.61839 | 39979 ft | 411 kts | 233° |
| 2026-05-07 18:38 | -32.21449 | -68.67616 | 39988 ft | 413 kts | 233° |
| 2026-05-07 18:38 | -32.24432 | -68.73424 | 39989 ft | 414 kts | 233° |
| 2026-05-07 18:39 | -32.27418 | -68.79247 | 39985 ft | 414 kts | 233° |
| 2026-05-07 18:39 | -32.30403 | -68.85078 | 39988 ft | 415 kts | 233° |
| 2026-05-07 18:40 | -32.33390 | -68.90920 | 39986 ft | 415 kts | 233° |
| 2026-05-07 18:40 | -32.36377 | -68.96772 | 39976 ft | 416 kts | 233° |
| 2026-05-07 18:41 | -32.39368 | -69.02641 | 39976 ft | 416 kts | 233° |
| 2026-05-07 18:41 | -32.42353 | -69.08507 | 39973 ft | 416 kts | 234° |
| 2026-05-07 18:42 | -32.45335 | -69.14378 | 39968 ft | 416 kts | 234° |
| 2026-05-07 18:42 | -32.48315 | -69.20252 | 39970 ft | 416 kts | 234° |
| 2026-05-07 18:43 | -32.51267 | -69.26081 | 39966 ft | 415 kts | 234° |
| 2026-05-07 18:43 | -32.54234 | -69.31949 | 39962 ft | 414 kts | 234° |
| 2026-05-07 18:44 | -32.57190 | -69.37805 | 39965 ft | 414 kts | 234° |
| 2026-05-07 18:44 | -32.60133 | -69.43646 | 39962 ft | 407 kts | 234° |
| 2026-05-07 18:44 | -32.61576 | -69.46517 | 39544 ft | 405 kts | 233° |
| 2026-05-07 18:45 | -32.63013 | -69.49375 | 38988 ft | 402 kts | 233° |
| 2026-05-07 18:45 | -32.64446 | -69.52222 | 38246 ft | 403 kts | 233° |
| 2026-05-07 18:45 | -32.65873 | -69.55071 | 37465 ft | 396 kts | 232° |
| 2026-05-07 18:45 | -32.67273 | -69.57870 | 36719 ft | 396 kts | 232° |
| 2026-05-07 18:46 | -32.68678 | -69.60666 | 35853 ft | 390 kts | 232° |
| 2026-05-07 18:46 | -32.70054 | -69.63414 | 35061 ft | 392 kts | 231° |
| 2026-05-07 18:46 | -32.71464 | -69.66214 | 34224 ft | 398 kts | 231° |
| 2026-05-07 18:46 | -32.72898 | -69.69064 | 33162 ft | 404 kts | 231° |
| 2026-05-07 18:47 | -32.74335 | -69.71931 | 32170 ft | 405 kts | 231° |
| 2026-05-07 18:47 | -32.75777 | -69.74820 | 31182 ft | 407 kts | 231° |
| 2026-05-07 18:47 | -32.77221 | -69.77717 | 30439 ft | 406 kts | 231° |
| 2026-05-07 18:47 | -32.78650 | -69.80588 | 29620 ft | 402 kts | 232° |
| 2026-05-07 18:48 | -32.79589 | -69.82478 | 29066 ft | 398 kts | 232° |
| 2026-05-07 18:48 | -32.80984 | -69.85286 | 28390 ft | 390 kts | 231° |
| 2026-05-07 18:48 | -32.82357 | -69.88049 | 27730 ft | 385 kts | 232° |
| 2026-05-07 18:48 | -32.83717 | -69.90774 | 26955 ft | 379 kts | 233° |
| 2026-05-07 18:49 | -32.85040 | -69.93440 | 26366 ft | 371 kts | 233° |
| 2026-05-07 18:49 | -32.86346 | -69.96066 | 25730 ft | 367 kts | 233° |
| 2026-05-07 18:49 | -32.87422 | -69.98803 | 25117 ft | 371 kts | 244° |
| 2026-05-07 18:49 | -32.87980 | -70.01868 | 24495 ft | 389 kts | 255° |
| 2026-05-07 18:50 | -32.87996 | -70.05180 | 23840 ft | 411 kts | 266° |
| 2026-05-07 18:50 | -32.87681 | -70.08569 | 23129 ft | 411 kts | 268° |
| 2026-05-07 18:50 | -32.87315 | -70.11931 | 22455 ft | 408 kts | 268° |
| 2026-05-07 18:50 | -32.86959 | -70.15269 | 21772 ft | 405 kts | 268° |
| 2026-05-07 18:51 | -32.86622 | -70.18589 | 21150 ft | 402 kts | 268° |
| 2026-05-07 18:51 | -32.86309 | -70.21884 | 20516 ft | 399 kts | 267° |
| 2026-05-07 18:51 | -32.86006 | -70.25146 | 19920 ft | 395 kts | 267° |
| 2026-05-07 18:51 | -32.85710 | -70.28394 | 19305 ft | 393 kts | 267° |
| 2026-05-07 18:52 | -32.85419 | -70.31575 | 18703 ft | 393 kts | 268° |
| 2026-05-07 18:52 | -32.85118 | -70.34859 | 17928 ft | 395 kts | 268° |
| 2026-05-07 18:52 | -32.84825 | -70.38054 | 17203 ft | 392 kts | 269° |
| 2026-05-07 18:52 | -32.84523 | -70.41261 | 16513 ft | 390 kts | 269° |
| 2026-05-07 18:53 | -32.84221 | -70.44474 | 15763 ft | 390 kts | 270° |
| 2026-05-07 18:53 | -32.83922 | -70.47659 | 15109 ft | 388 kts | 271° |
| 2026-05-07 18:53 | -32.83624 | -70.50840 | 14450 ft | 386 kts | 272° |
| 2026-05-07 18:53 | -32.83323 | -70.54002 | 13865 ft | 382 kts | 272° |
| 2026-05-07 18:54 | -32.83060 | -70.57113 | 13280 ft | 372 kts | 271° |
| 2026-05-07 18:54 | -32.82792 | -70.60149 | 12768 ft | 366 kts | 274° |
| 2026-05-07 18:54 | -32.82480 | -70.63126 | 12265 ft | 360 kts | 274° |
| 2026-05-07 18:54 | -32.82185 | -70.66168 | 11959 ft | 384 kts | 271° |
| 2026-05-07 18:55 | -32.82402 | -70.69298 | 11485 ft | 370 kts | 250° |
| 2026-05-07 18:55 | -32.83562 | -70.71813 | 11005 ft | 330 kts | 227° |
| 2026-05-07 18:55 | -32.85097 | -70.73660 | 10482 ft | 301 kts | 221° |
| 2026-05-07 18:55 | -32.86580 | -70.75277 | 10182 ft | 277 kts | 220° |
| 2026-05-07 18:56 | -32.88003 | -70.76820 | 9903 ft | 284 kts | 220° |
| 2026-05-07 18:56 | -32.89493 | -70.78446 | 9615 ft | 291 kts | 220° |
| 2026-05-07 18:56 | -32.90977 | -70.80023 | 9360 ft | 278 kts | 214° |
| 2026-05-07 18:56 | -32.92716 | -70.80917 | 8913 ft | 273 kts | 189° |
| 2026-05-07 18:57 | -32.94582 | -70.81038 | 8644 ft | 268 kts | 178° |
| 2026-05-07 18:57 | -32.96443 | -70.80930 | 8366 ft | 266 kts | 176° |
| 2026-05-07 18:57 | -32.98285 | -70.80808 | 8096 ft | 266 kts | 176° |
| 2026-05-07 18:57 | -33.00130 | -70.80695 | 7822 ft | 265 kts | 177° |
| 2026-05-07 18:58 | -33.01965 | -70.80585 | 7558 ft | 264 kts | 177° |
| 2026-05-07 18:58 | -33.03790 | -70.80482 | 7289 ft | 261 kts | 177° |
| 2026-05-07 18:58 | -33.05585 | -70.80383 | 7023 ft | 251 kts | 177° |
| 2026-05-07 18:58 | -33.07295 | -70.80292 | 6777 ft | 244 kts | 178° |
| 2026-05-07 18:59 | -33.08977 | -70.80205 | 6524 ft | 240 kts | 178° |
| 2026-05-07 18:59 | -33.10621 | -70.80120 | 6278 ft | 233 kts | 178° |
| 2026-05-07 18:59 | -33.12223 | -70.80035 | 6037 ft | 227 kts | 178° |
| 2026-05-07 18:59 | -33.13783 | -70.79951 | 5818 ft | 221 kts | 178° |
| 2026-05-07 19:00 | -33.15305 | -70.79869 | 5593 ft | 216 kts | 178° |
| 2026-05-07 19:00 | -33.16787 | -70.79791 | 5368 ft | 210 kts | 178° |
| 2026-05-07 19:00 | -33.18222 | -70.79714 | 5173 ft | 205 kts | 178° |
| 2026-05-07 19:00 | -33.19646 | -70.79636 | 4957 ft | 204 kts | 177° |
| 2026-05-07 19:01 | -33.21056 | -70.79562 | 4683 ft | 202 kts | 178° |
| 2026-05-07 19:01 | -33.22457 | -70.79487 | 4426 ft | 200 kts | 178° |
| 2026-05-07 19:01 | -33.23845 | -70.79415 | 4166 ft | 198 kts | 177° |
| 2026-05-07 19:01 | -33.25225 | -70.79337 | 3903 ft | 205 kts | 177° |
| 2026-05-07 19:02 | -33.26674 | -70.79256 | 3642 ft | 211 kts | 178° |
| 2026-05-07 19:02 | -33.28136 | -70.79178 | 3338 ft | 211 kts | 178° |
| 2026-05-07 19:02 | -33.29598 | -70.79100 | 3084 ft | 206 kts | 178° |
| 2026-05-07 19:02 | -33.30956 | -70.79030 | 2914 ft | 188 kts | 177° |
| 2026-05-07 19:03 | -33.32246 | -70.78961 | 2612 ft | 184 kts | 177° |
| 2026-05-07 19:03 | -33.33494 | -70.78891 | 2356 ft | 176 kts | 177° |
| 2026-05-07 19:03 | -33.34679 | -70.78828 | 2172 ft | 164 kts | 177° |
| 2026-05-07 19:03 | -33.35777 | -70.78770 | 1958 ft | 153 kts | 177° |
| 2026-05-07 19:04 | -33.36785 | -70.78715 | 1764 ft | 136 kts | 176° |
| 2026-05-07 19:04 | -33.37701 | -70.78659 | 1596 ft | 133 kts | 178° |
| 2026-05-07 19:04 | -33.38590 | -70.78617 | 1569 ft | 118 kts | 178° |
| 2026-05-07 19:04 | -33.39236 | -70.78583 | 1569 ft | 67 kts | 177° |
| 2026-05-07 19:05 | -33.39573 | -70.78627 | 1568 ft | 32 kts | 202° |
| 2026-05-07 19:05 | -33.39663 | -70.78679 | 1569 ft | 11 kts | 206° |
| 2026-05-07 19:05 | -33.39673 | -70.78685 | 1569 ft | 1 kts | 206° |
| 2026-05-07 19:05 | -33.39721 | -70.78714 | 1569 ft | 11 kts | 211° |
| 2026-05-07 19:06 | -33.39758 | -70.78824 | 1569 ft | 20 kts | 265° |
| 2026-05-07 19:06 | -33.39869 | -70.78992 | 1569 ft | 17 kts | 176° |
| 2026-05-07 19:06 | -33.39898 | -70.78990 | 1569 ft | 0 kts | 175° |